QFA448 YMML-YSSY
Flight info
| Callsign | QFA448 |
|---|---|
| Flight time | 1h 4m |
| Altitude | 37000 |
| Route | ML H129 DOSEL Y59 RIVET |
| Aircraft | B738/M-SDE2E3FGHIRWXY/LB1 |
Departure
| Time | 2026-05-06 01:55 |
|---|---|
| Airport | Melbourne Airport (YMML) |
Arrival
| Time | 2026-05-06 02:59 |
|---|---|
| Airport | Sydney Kingsford Smith International Airport (YSSY) |
| Time | Latitude | Longitude | Altitude | Speed | Heading |
|---|---|---|---|---|---|
| 2026-05-06 01:35 | -37.66777 | 144.85164 | 392 ft | 0 kts | 82° |
| 2026-05-06 01:46 | -37.66778 | 144.85155 | 396 ft | 3 kts | 82° |
| 2026-05-06 01:46 | -37.66781 | 144.85131 | 396 ft | 3 kts | 82° |
| 2026-05-06 01:46 | -37.66782 | 144.85117 | 397 ft | 3 kts | 75° |
| 2026-05-06 01:47 | -37.66795 | 144.85092 | 393 ft | 3 kts | 23° |
| 2026-05-06 01:47 | -37.66806 | 144.85087 | 396 ft | 2 kts | 5° |
| 2026-05-06 01:47 | -37.66812 | 144.85086 | 396 ft | 1 kts | 1° |
| 2026-05-06 01:51 | -37.66805 | 144.85086 | 395 ft | 3 kts | 1° |
| 2026-05-06 01:51 | -37.66770 | 144.85088 | 391 ft | 7 kts | 3° |
| 2026-05-06 01:51 | -37.66709 | 144.85083 | 396 ft | 10 kts | 352° |
| 2026-05-06 01:51 | -37.66639 | 144.85070 | 400 ft | 10 kts | 351° |
| 2026-05-06 01:52 | -37.66571 | 144.85058 | 403 ft | 10 kts | 353° |
| 2026-05-06 01:52 | -37.66505 | 144.85046 | 405 ft | 9 kts | 348° |
| 2026-05-06 01:52 | -37.66447 | 144.85009 | 407 ft | 10 kts | 322° |
| 2026-05-06 01:52 | -37.66392 | 144.84954 | 410 ft | 10 kts | 321° |
| 2026-05-06 01:53 | -37.66363 | 144.84925 | 410 ft | 2 kts | 321° |
| 2026-05-06 01:53 | -37.66361 | 144.84923 | 410 ft | 0 kts | 321° |
| 2026-05-06 01:53 | -37.66339 | 144.84901 | 407 ft | 9 kts | 321° |
| 2026-05-06 01:54 | -37.66262 | 144.84825 | 409 ft | 17 kts | 322° |
| 2026-05-06 01:54 | -37.66218 | 144.84661 | 412 ft | 29 kts | 274° |
| 2026-05-06 01:54 | -37.66183 | 144.84077 | 412 ft | 106 kts | 274° |
| 2026-05-06 01:54 | -37.66108 | 144.82852 | 477 ft | 167 kts | 278° |
| 2026-05-06 01:55 | -37.66021 | 144.81348 | 1409 ft | 171 kts | 276° |
| 2026-05-06 01:55 | -37.65946 | 144.79965 | 2705 ft | 151 kts | 277° |
| 2026-05-06 01:55 | -37.65870 | 144.78635 | 3458 ft | 159 kts | 275° |
| 2026-05-06 01:55 | -37.65776 | 144.77106 | 3742 ft | 189 kts | 277° |
| 2026-05-06 01:56 | -37.65184 | 144.75538 | 3943 ft | 216 kts | 319° |
| 2026-05-06 01:56 | -37.63743 | 144.74869 | 4401 ft | 234 kts | 353° |
| 2026-05-06 01:56 | -37.62057 | 144.75284 | 4683 ft | 264 kts | 24° |
| 2026-05-06 01:56 | -37.60583 | 144.76774 | 5304 ft | 278 kts | 46° |
| 2026-05-06 01:57 | -37.59326 | 144.78622 | 6248 ft | 278 kts | 48° |
| 2026-05-06 01:57 | -37.58068 | 144.80521 | 6964 ft | 285 kts | 48° |
| 2026-05-06 01:57 | -37.56787 | 144.82442 | 7803 ft | 286 kts | 47° |
| 2026-05-06 01:57 | -37.55488 | 144.84365 | 8565 ft | 291 kts | 46° |
| 2026-05-06 01:58 | -37.54154 | 144.86313 | 9324 ft | 296 kts | 45° |
| 2026-05-06 01:58 | -37.52794 | 144.88282 | 10136 ft | 300 kts | 45° |
| 2026-05-06 01:58 | -37.51383 | 144.90306 | 10506 ft | 319 kts | 44° |
| 2026-05-06 01:58 | -37.49858 | 144.92476 | 10683 ft | 343 kts | 44° |
| 2026-05-06 01:59 | -37.48223 | 144.94798 | 10898 ft | 363 kts | 45° |
| 2026-05-06 01:59 | -37.46519 | 144.97217 | 11388 ft | 373 kts | 45° |
| 2026-05-06 01:59 | -37.44792 | 144.99671 | 12082 ft | 376 kts | 44° |
| 2026-05-06 01:59 | -37.43047 | 145.02149 | 12824 ft | 379 kts | 44° |
| 2026-05-06 02:00 | -37.41293 | 145.04636 | 13541 ft | 382 kts | 44° |
| 2026-05-06 02:00 | -37.39516 | 145.07147 | 14179 ft | 386 kts | 44° |
| 2026-05-06 02:00 | -37.37725 | 145.09676 | 14823 ft | 388 kts | 44° |
| 2026-05-06 02:00 | -37.35915 | 145.12230 | 15466 ft | 392 kts | 44° |
| 2026-05-06 02:01 | -37.34098 | 145.14792 | 16065 ft | 395 kts | 44° |
| 2026-05-06 02:01 | -37.32254 | 145.17387 | 16681 ft | 399 kts | 44° |
| 2026-05-06 02:01 | -37.30402 | 145.19993 | 17310 ft | 402 kts | 44° |
| 2026-05-06 02:01 | -37.28536 | 145.22619 | 17920 ft | 405 kts | 44° |
| 2026-05-06 02:02 | -37.26652 | 145.25269 | 18495 ft | 408 kts | 44° |
| 2026-05-06 02:02 | -37.24777 | 145.27899 | 19012 ft | 410 kts | 44° |
| 2026-05-06 02:02 | -37.22870 | 145.30575 | 19556 ft | 412 kts | 43° |
| 2026-05-06 02:02 | -37.20955 | 145.33260 | 20058 ft | 415 kts | 43° |
| 2026-05-06 02:03 | -37.19020 | 145.35970 | 20550 ft | 418 kts | 43° |
| 2026-05-06 02:03 | -37.17070 | 145.38698 | 21034 ft | 421 kts | 43° |
| 2026-05-06 02:03 | -37.15191 | 145.41550 | 21519 ft | 427 kts | 48° |
| 2026-05-06 02:03 | -37.13423 | 145.44559 | 21964 ft | 431 kts | 50° |
| 2026-05-06 02:04 | -37.11683 | 145.47640 | 22405 ft | 435 kts | 50° |
| 2026-05-06 02:04 | -37.09941 | 145.50755 | 22858 ft | 438 kts | 50° |
| 2026-05-06 02:04 | -37.08183 | 145.53888 | 23309 ft | 441 kts | 50° |
| 2026-05-06 02:04 | -37.06408 | 145.57027 | 23768 ft | 443 kts | 50° |
| 2026-05-06 02:05 | -37.04617 | 145.60169 | 24103 ft | 446 kts | 49° |
| 2026-05-06 02:05 | -37.02803 | 145.63335 | 24480 ft | 448 kts | 49° |
| 2026-05-06 02:05 | -37.00985 | 145.66496 | 24823 ft | 450 kts | 49° |
| 2026-05-06 02:05 | -36.99142 | 145.69690 | 25163 ft | 453 kts | 49° |
| 2026-05-06 02:06 | -36.97294 | 145.72889 | 25502 ft | 455 kts | 49° |
| 2026-05-06 02:06 | -36.95438 | 145.76097 | 25852 ft | 457 kts | 49° |
| 2026-05-06 02:06 | -36.93570 | 145.79323 | 26191 ft | 459 kts | 49° |
| 2026-05-06 02:06 | -36.91692 | 145.82565 | 26524 ft | 461 kts | 49° |
| 2026-05-06 02:07 | -36.89808 | 145.85815 | 26859 ft | 463 kts | 49° |
| 2026-05-06 02:07 | -36.87938 | 145.89037 | 27143 ft | 466 kts | 49° |
| 2026-05-06 02:07 | -36.86005 | 145.92364 | 27429 ft | 468 kts | 49° |
| 2026-05-06 02:07 | -36.84113 | 145.95618 | 27737 ft | 470 kts | 49° |
| 2026-05-06 02:08 | -36.82191 | 145.98923 | 28041 ft | 472 kts | 49° |
| 2026-05-06 02:08 | -36.80255 | 146.02247 | 28303 ft | 474 kts | 49° |
| 2026-05-06 02:08 | -36.78310 | 146.05581 | 28588 ft | 476 kts | 49° |
| 2026-05-06 02:08 | -36.76356 | 146.08929 | 28868 ft | 478 kts | 49° |
| 2026-05-06 02:09 | -36.74394 | 146.12288 | 29110 ft | 481 kts | 49° |
| 2026-05-06 02:09 | -36.72419 | 146.15664 | 29406 ft | 482 kts | 49° |
| 2026-05-06 02:09 | -36.70444 | 146.19039 | 29818 ft | 480 kts | 49° |
| 2026-05-06 02:09 | -36.68481 | 146.22392 | 30263 ft | 478 kts | 49° |
| 2026-05-06 02:10 | -36.66521 | 146.25737 | 30592 ft | 477 kts | 49° |
| 2026-05-06 02:10 | -36.64561 | 146.29075 | 30870 ft | 478 kts | 48° |
| 2026-05-06 02:10 | -36.62596 | 146.32418 | 31138 ft | 478 kts | 49° |
| 2026-05-06 02:10 | -36.60631 | 146.35756 | 31411 ft | 478 kts | 49° |
| 2026-05-06 02:11 | -36.58670 | 146.39086 | 31706 ft | 477 kts | 49° |
| 2026-05-06 02:11 | -36.56709 | 146.42413 | 32025 ft | 476 kts | 48° |
| 2026-05-06 02:11 | -36.54777 | 146.45689 | 32317 ft | 476 kts | 48° |
| 2026-05-06 02:11 | -36.52818 | 146.49005 | 32597 ft | 476 kts | 48° |
| 2026-05-06 02:12 | -36.50860 | 146.52317 | 32884 ft | 475 kts | 48° |
| 2026-05-06 02:12 | -36.48905 | 146.55620 | 33152 ft | 475 kts | 48° |
| 2026-05-06 02:12 | -36.46948 | 146.58924 | 33440 ft | 474 kts | 48° |
| 2026-05-06 02:12 | -36.44999 | 146.62212 | 33732 ft | 473 kts | 48° |
| 2026-05-06 02:13 | -36.43047 | 146.65501 | 34000 ft | 473 kts | 48° |
| 2026-05-06 02:13 | -36.41095 | 146.68786 | 34254 ft | 473 kts | 48° |
| 2026-05-06 02:13 | -36.39143 | 146.72069 | 34485 ft | 472 kts | 48° |
| 2026-05-06 02:13 | -36.37194 | 146.75343 | 34698 ft | 472 kts | 48° |
| 2026-05-06 02:14 | -36.35240 | 146.78622 | 34889 ft | 472 kts | 48° |
| 2026-05-06 02:14 | -36.33284 | 146.81904 | 35103 ft | 472 kts | 48° |
| 2026-05-06 02:14 | -36.31339 | 146.85162 | 35328 ft | 471 kts | 48° |
| 2026-05-06 02:14 | -36.29382 | 146.88437 | 35503 ft | 472 kts | 48° |
| 2026-05-06 02:15 | -36.27428 | 146.91704 | 35678 ft | 472 kts | 48° |
| 2026-05-06 02:15 | -36.25472 | 146.94973 | 35872 ft | 472 kts | 48° |
| 2026-05-06 02:15 | -36.23518 | 146.98236 | 36109 ft | 471 kts | 48° |
| 2026-05-06 02:15 | -36.21591 | 147.01450 | 36277 ft | 471 kts | 48° |
| 2026-05-06 02:16 | -36.19638 | 147.04705 | 36464 ft | 471 kts | 48° |
| 2026-05-06 02:16 | -36.17683 | 147.07957 | 36658 ft | 470 kts | 48° |
| 2026-05-06 02:16 | -36.15732 | 147.11201 | 36823 ft | 471 kts | 48° |
| 2026-05-06 02:16 | -36.13774 | 147.14452 | 36985 ft | 471 kts | 48° |
| 2026-05-06 02:17 | -36.11819 | 147.17697 | 37181 ft | 470 kts | 48° |
| 2026-05-06 02:17 | -36.09860 | 147.20944 | 37201 ft | 472 kts | 48° |
| 2026-05-06 02:17 | -36.05931 | 147.27453 | 37193 ft | 471 kts | 48° |
| 2026-05-06 02:18 | -36.02022 | 147.33920 | 37194 ft | 468 kts | 48° |
| 2026-05-06 02:18 | -35.98130 | 147.40346 | 37194 ft | 466 kts | 48° |
| 2026-05-06 02:19 | -35.94273 | 147.46699 | 37207 ft | 465 kts | 48° |
| 2026-05-06 02:19 | -35.90395 | 147.53077 | 37206 ft | 465 kts | 48° |
| 2026-05-06 02:20 | -35.84561 | 147.62650 | 37196 ft | 466 kts | 48° |
| 2026-05-06 02:21 | -35.80659 | 147.69032 | 37204 ft | 467 kts | 48° |
| 2026-05-06 02:21 | -35.76738 | 147.75430 | 37199 ft | 468 kts | 48° |
| 2026-05-06 02:22 | -35.72807 | 147.81837 | 37191 ft | 470 kts | 48° |
| 2026-05-06 02:22 | -35.68859 | 147.88261 | 37192 ft | 471 kts | 48° |
| 2026-05-06 02:23 | -35.64897 | 147.94697 | 37174 ft | 472 kts | 48° |
| 2026-05-06 02:23 | -35.60936 | 148.01121 | 37186 ft | 472 kts | 48° |
| 2026-05-06 02:24 | -35.56959 | 148.07556 | 37188 ft | 473 kts | 48° |
| 2026-05-06 02:24 | -35.53001 | 148.13950 | 37180 ft | 473 kts | 48° |
| 2026-05-06 02:25 | -35.48994 | 148.20413 | 37182 ft | 472 kts | 48° |
| 2026-05-06 02:25 | -35.45038 | 148.26782 | 37176 ft | 472 kts | 48° |
| 2026-05-06 02:26 | -35.41058 | 148.33171 | 37183 ft | 472 kts | 48° |
| 2026-05-06 02:26 | -35.37063 | 148.39559 | 37174 ft | 472 kts | 48° |
| 2026-05-06 02:27 | -35.33072 | 148.45933 | 37171 ft | 471 kts | 48° |
| 2026-05-06 02:27 | -35.29079 | 148.52301 | 37169 ft | 471 kts | 48° |
| 2026-05-06 02:28 | -35.25089 | 148.58653 | 37184 ft | 471 kts | 48° |
| 2026-05-06 02:28 | -35.21090 | 148.65007 | 37158 ft | 471 kts | 48° |
| 2026-05-06 02:29 | -35.17096 | 148.71342 | 37164 ft | 471 kts | 48° |
| 2026-05-06 02:29 | -35.13090 | 148.77686 | 37185 ft | 471 kts | 48° |
| 2026-05-06 02:30 | -35.09085 | 148.84017 | 37185 ft | 471 kts | 48° |
| 2026-05-06 02:30 | -35.05074 | 148.90345 | 37168 ft | 472 kts | 48° |
| 2026-05-06 02:31 | -35.01049 | 148.96683 | 36903 ft | 477 kts | 48° |
| 2026-05-06 02:31 | -34.99003 | 148.99897 | 36382 ft | 479 kts | 48° |
| 2026-05-06 02:31 | -34.96993 | 149.03057 | 35805 ft | 477 kts | 49° |
| 2026-05-06 02:31 | -34.94962 | 149.06248 | 35182 ft | 477 kts | 49° |
| 2026-05-06 02:32 | -34.92921 | 149.09450 | 34547 ft | 478 kts | 49° |
| 2026-05-06 02:32 | -34.90880 | 149.12649 | 33829 ft | 478 kts | 49° |
| 2026-05-06 02:32 | -34.88841 | 149.15841 | 33111 ft | 478 kts | 49° |
| 2026-05-06 02:32 | -34.86796 | 149.19041 | 32413 ft | 478 kts | 49° |
| 2026-05-06 02:33 | -34.84754 | 149.22234 | 31710 ft | 478 kts | 50° |
| 2026-05-06 02:33 | -34.83377 | 149.24384 | 31299 ft | 477 kts | 50° |
| 2026-05-06 02:33 | -34.78691 | 149.31697 | 30182 ft | 466 kts | 50° |
| 2026-05-06 02:34 | -34.76707 | 149.34788 | 29616 ft | 462 kts | 50° |
| 2026-05-06 02:34 | -34.75404 | 149.36815 | 29278 ft | 458 kts | 50° |
| 2026-05-06 02:34 | -34.72980 | 149.41029 | 28708 ft | 452 kts | 59° |
| 2026-05-06 02:34 | -34.71998 | 149.43244 | 28546 ft | 445 kts | 60° |
| 2026-05-06 02:35 | -34.70113 | 149.47676 | 27973 ft | 438 kts | 61° |
| 2026-05-06 02:35 | -34.69195 | 149.49852 | 27665 ft | 436 kts | 61° |
| 2026-05-06 02:35 | -34.67814 | 149.53104 | 27178 ft | 433 kts | 60° |
| 2026-05-06 02:35 | -34.66426 | 149.56336 | 26706 ft | 430 kts | 60° |
| 2026-05-06 02:36 | -34.65036 | 149.59542 | 26235 ft | 427 kts | 60° |
| 2026-05-06 02:36 | -34.63651 | 149.62714 | 25783 ft | 424 kts | 60° |
| 2026-05-06 02:36 | -34.62270 | 149.65867 | 25306 ft | 422 kts | 60° |
| 2026-05-06 02:36 | -34.60894 | 149.69004 | 24828 ft | 420 kts | 60° |
| 2026-05-06 02:37 | -34.59524 | 149.72123 | 24366 ft | 418 kts | 60° |
| 2026-05-06 02:37 | -34.58157 | 149.75234 | 23883 ft | 417 kts | 60° |
| 2026-05-06 02:37 | -34.56792 | 149.78337 | 23359 ft | 416 kts | 60° |
| 2026-05-06 02:37 | -34.55433 | 149.81426 | 22858 ft | 413 kts | 60° |
| 2026-05-06 02:38 | -34.54083 | 149.84494 | 22382 ft | 411 kts | 60° |
| 2026-05-06 02:38 | -34.52743 | 149.87536 | 21914 ft | 408 kts | 60° |
| 2026-05-06 02:38 | -34.51412 | 149.90553 | 21460 ft | 404 kts | 60° |
| 2026-05-06 02:38 | -34.50090 | 149.93546 | 21013 ft | 401 kts | 60° |
| 2026-05-06 02:39 | -34.48777 | 149.96516 | 20598 ft | 398 kts | 60° |
| 2026-05-06 02:39 | -34.47494 | 149.99416 | 20168 ft | 395 kts | 60° |
| 2026-05-06 02:39 | -34.46199 | 150.02343 | 19719 ft | 393 kts | 60° |
| 2026-05-06 02:39 | -34.44912 | 150.05247 | 19286 ft | 390 kts | 60° |
| 2026-05-06 02:40 | -34.43633 | 150.08134 | 18860 ft | 388 kts | 60° |
| 2026-05-06 02:40 | -34.42358 | 150.11009 | 18398 ft | 387 kts | 60° |
| 2026-05-06 02:40 | -34.41087 | 150.13871 | 17908 ft | 385 kts | 60° |
| 2026-05-06 02:40 | -34.39822 | 150.16719 | 17435 ft | 382 kts | 60° |
| 2026-05-06 02:41 | -34.38569 | 150.19538 | 16992 ft | 379 kts | 60° |
| 2026-05-06 02:41 | -34.37321 | 150.22343 | 16546 ft | 377 kts | 60° |
| 2026-05-06 02:41 | -34.36085 | 150.25119 | 16116 ft | 374 kts | 59° |
| 2026-05-06 02:41 | -34.34852 | 150.27884 | 15684 ft | 372 kts | 59° |
| 2026-05-06 02:42 | -34.33631 | 150.30623 | 15256 ft | 370 kts | 59° |
| 2026-05-06 02:42 | -34.32412 | 150.33353 | 14835 ft | 368 kts | 59° |
| 2026-05-06 02:42 | -34.31197 | 150.36077 | 14412 ft | 366 kts | 59° |
| 2026-05-06 02:42 | -34.29991 | 150.38775 | 14000 ft | 364 kts | 59° |
| 2026-05-06 02:43 | -34.28783 | 150.41471 | 13520 ft | 364 kts | 59° |
| 2026-05-06 02:43 | -34.27582 | 150.44154 | 13076 ft | 362 kts | 59° |
| 2026-05-06 02:43 | -34.26390 | 150.46817 | 12655 ft | 359 kts | 59° |
| 2026-05-06 02:43 | -34.25208 | 150.49458 | 12238 ft | 356 kts | 59° |
| 2026-05-06 02:44 | -34.24032 | 150.52086 | 11829 ft | 354 kts | 59° |
| 2026-05-06 02:44 | -34.22864 | 150.54691 | 11422 ft | 351 kts | 60° |
| 2026-05-06 02:44 | -34.21705 | 150.57275 | 11011 ft | 349 kts | 59° |
| 2026-05-06 02:44 | -34.20564 | 150.59821 | 10854 ft | 339 kts | 59° |
| 2026-05-06 02:45 | -34.19455 | 150.62288 | 10681 ft | 329 kts | 59° |
| 2026-05-06 02:45 | -34.18371 | 150.64696 | 10435 ft | 324 kts | 60° |
| 2026-05-06 02:45 | -34.17308 | 150.67061 | 10291 ft | 315 kts | 60° |
| 2026-05-06 02:45 | -34.16278 | 150.69352 | 10156 ft | 307 kts | 60° |
| 2026-05-06 02:46 | -34.15273 | 150.71586 | 10024 ft | 299 kts | 60° |
| 2026-05-06 02:46 | -34.14297 | 150.73754 | 9950 ft | 288 kts | 60° |
| 2026-05-06 02:46 | -34.13351 | 150.75853 | 9531 ft | 291 kts | 59° |
| 2026-05-06 02:46 | -34.12391 | 150.77981 | 9235 ft | 289 kts | 59° |
| 2026-05-06 02:47 | -34.11428 | 150.80114 | 8916 ft | 289 kts | 59° |
| 2026-05-06 02:47 | -34.10469 | 150.82239 | 8618 ft | 287 kts | 59° |
| 2026-05-06 02:47 | -34.09519 | 150.84346 | 8333 ft | 285 kts | 59° |
| 2026-05-06 02:47 | -34.08579 | 150.86434 | 8055 ft | 283 kts | 59° |
| 2026-05-06 02:48 | -34.07645 | 150.88512 | 7773 ft | 281 kts | 59° |
| 2026-05-06 02:48 | -34.06716 | 150.90574 | 7503 ft | 279 kts | 59° |
| 2026-05-06 02:48 | -34.05790 | 150.92630 | 7229 ft | 277 kts | 59° |
| 2026-05-06 02:48 | -34.04872 | 150.94667 | 6950 ft | 276 kts | 59° |
| 2026-05-06 02:49 | -34.03959 | 150.96690 | 6694 ft | 275 kts | 59° |
| 2026-05-06 02:49 | -34.03044 | 150.98711 | 6391 ft | 274 kts | 58° |
| 2026-05-06 02:49 | -34.01831 | 151.00418 | 6088 ft | 268 kts | 30° |
| 2026-05-06 02:49 | -34.00086 | 151.01012 | 5850 ft | 262 kts | 358° |
| 2026-05-06 02:50 | -33.98296 | 151.00720 | 5592 ft | 259 kts | 349° |
| 2026-05-06 02:50 | -33.96537 | 151.00276 | 5341 ft | 257 kts | 348° |
| 2026-05-06 02:50 | -33.94802 | 150.99813 | 5123 ft | 255 kts | 348° |
| 2026-05-06 02:50 | -33.93081 | 150.99349 | 4918 ft | 251 kts | 348° |
| 2026-05-06 02:51 | -33.91394 | 150.98890 | 4728 ft | 248 kts | 348° |
| 2026-05-06 02:51 | -33.89748 | 150.98438 | 4679 ft | 237 kts | 347° |
| 2026-05-06 02:51 | -33.88161 | 150.98002 | 4593 ft | 229 kts | 348° |
| 2026-05-06 02:51 | -33.86634 | 150.97580 | 4542 ft | 221 kts | 347° |
| 2026-05-06 02:52 | -33.85147 | 150.97168 | 4519 ft | 220 kts | 347° |
| 2026-05-06 02:52 | -33.83624 | 150.96748 | 4498 ft | 228 kts | 348° |
| 2026-05-06 02:52 | -33.82078 | 150.96321 | 4381 ft | 227 kts | 348° |
| 2026-05-06 02:52 | -33.80541 | 150.95891 | 4118 ft | 227 kts | 348° |
| 2026-05-06 02:53 | -33.79009 | 150.95574 | 3823 ft | 227 kts | 4° |
| 2026-05-06 02:53 | -33.77581 | 150.96274 | 3519 ft | 226 kts | 45° |
| 2026-05-06 02:53 | -33.76872 | 150.97925 | 3236 ft | 226 kts | 80° |
| 2026-05-06 02:53 | -33.76686 | 150.99780 | 3045 ft | 227 kts | 82° |
| 2026-05-06 02:54 | -33.76506 | 151.01663 | 2997 ft | 227 kts | 83° |
| 2026-05-06 02:54 | -33.76327 | 151.03553 | 2957 ft | 228 kts | 82° |
| 2026-05-06 02:54 | -33.76151 | 151.05434 | 2968 ft | 226 kts | 83° |
| 2026-05-06 02:54 | -33.75978 | 151.07311 | 2972 ft | 225 kts | 82° |
| 2026-05-06 02:55 | -33.76034 | 151.09187 | 2958 ft | 230 kts | 110° |
| 2026-05-06 02:55 | -33.76990 | 151.10714 | 2990 ft | 233 kts | 138° |
| 2026-05-06 02:55 | -33.78214 | 151.12012 | 2987 ft | 236 kts | 137° |
| 2026-05-06 02:55 | -33.79450 | 151.13322 | 2902 ft | 240 kts | 140° |
| 2026-05-06 02:56 | -33.80987 | 151.14123 | 2501 ft | 246 kts | 172° |
| 2026-05-06 02:56 | -33.82680 | 151.14429 | 2119 ft | 244 kts | 167° |
| 2026-05-06 02:56 | -33.84288 | 151.14888 | 1791 ft | 231 kts | 166° |
| 2026-05-06 02:56 | -33.85807 | 151.15298 | 1497 ft | 217 kts | 166° |
| 2026-05-06 02:57 | -33.87230 | 151.15668 | 1220 ft | 202 kts | 166° |
| 2026-05-06 02:57 | -33.88560 | 151.16013 | 955 ft | 191 kts | 167° |
| 2026-05-06 02:57 | -33.89820 | 151.16343 | 714 ft | 180 kts | 168° |
| 2026-05-06 02:57 | -33.90993 | 151.16649 | 512 ft | 164 kts | 168° |
| 2026-05-06 02:58 | -33.92058 | 151.16927 | 276 ft | 149 kts | 168° |
| 2026-05-06 02:58 | -33.92992 | 151.17173 | 86 ft | 131 kts | 167° |
| 2026-05-06 02:58 | -33.93807 | 151.17385 | 26 ft | 105 kts | 167° |
| 2026-05-06 02:58 | -33.94372 | 151.17532 | 29 ft | 61 kts | 168° |
| 2026-05-06 02:59 | -33.94528 | 151.17591 | 29 ft | 14 kts | 126° |
| 2026-05-06 02:59 | -33.94526 | 151.17677 | 29 ft | 10 kts | 55° |
| 2026-05-06 02:59 | -33.94471 | 151.17702 | 29 ft | 7 kts | 14° |
| 2026-05-06 02:59 | -33.94452 | 151.17709 | 29 ft | 0 kts | 15° |
| 2026-05-06 03:01 | -33.94435 | 151.17714 | 29 ft | 6 kts | 16° |
| 2026-05-06 03:01 | -33.94364 | 151.17737 | 29 ft | 14 kts | 7° |
| 2026-05-06 03:01 | -33.94258 | 151.17712 | 28 ft | 17 kts | 345° |
| 2026-05-06 03:02 | -33.94135 | 151.17675 | 28 ft | 18 kts | 347° |
| 2026-05-06 03:02 | -33.94012 | 151.17641 | 27 ft | 18 kts | 347° |
| 2026-05-06 03:02 | -33.93893 | 151.17609 | 28 ft | 17 kts | 348° |
| 2026-05-06 03:02 | -33.93778 | 151.17580 | 28 ft | 17 kts | 348° |
| 2026-05-06 03:03 | -33.93667 | 151.17551 | 28 ft | 16 kts | 348° |
| 2026-05-06 03:03 | -33.93560 | 151.17523 | 28 ft | 15 kts | 347° |
| 2026-05-06 03:03 | -33.93458 | 151.17500 | 29 ft | 15 kts | 2° |
| 2026-05-06 03:03 | -33.93358 | 151.17499 | 29 ft | 14 kts | 349° |
| 2026-05-06 03:04 | -33.93265 | 151.17474 | 29 ft | 13 kts | 348° |
| 2026-05-06 03:04 | -33.93171 | 151.17449 | 29 ft | 14 kts | 347° |
| 2026-05-06 03:04 | -33.93080 | 151.17459 | 29 ft | 14 kts | 60° |
| 2026-05-06 03:04 | -33.93029 | 151.17549 | 29 ft | 13 kts | 34° |
| 2026-05-06 03:05 | -33.93014 | 151.17649 | 29 ft | 13 kts | 101° |
| 2026-05-06 03:05 | -33.93051 | 151.17748 | 29 ft | 13 kts | 111° |
| 2026-05-06 03:05 | -33.93083 | 151.17821 | 29 ft | 9 kts | 182° |
| 2026-05-06 03:05 | -33.93139 | 151.17802 | 29 ft | 1 kts | 191° |